Port Saint Joe, Florida
Current Conditions -  °F | °C
As of 3:53 AM on Sunday 23 Nov 2014 (Local Time) from KAAF Reporting Station
Overcast Overcast  
Wind Chill: 70°   Ceiling: 1200
Heat Index: 70°   Visibility: 8mi
Dew Point: 66°   Wind: 14mph
Humidity: 87%   Direction: 130°SE
Pressure: 29.9"   Gusts: 23mph
Location:  29.81°N, 85.3°W
Report Text: KAAF 230953Z AUTO 13012G20KT 8SM SCT009 BKN012 OVC021 21/19 A2990 RMK AO2 SLP124 T02110189 TSNO
Loading
Personal Weather Stations






























Interactive Weather Map New forecast layout! Learn more

10-Day Weather Forecast

Advertisements
Track Severe Weather on mobile